Time;durP1;ratioP1;P1;durP2;ratioP2;P2;SDS_P1;SDS_P2;PMS_P1;PMS_P2;Temp;Humidity;BMP_temperature;BMP_pressure;BME280_temperature;BME280_humidity;BME280_pressure;Samples;Min_cycle;Max_cycle;Signal;HPM_P1;HPM_P2
2024/03/09 00:02:05;;;;;;;;;;;18.00;53.10;;;;;;5048181;28;1468;-71
2024/03/09 00:04:31;;;;;;;;;;;18.00;53.10;;;;;;5046022;28;1326;-71
2024/03/09 00:06:57;;;;;;;;;;;18.00;53.10;;;;;;5045288;28;1269;-72
2024/03/09 00:09:22;;;;;;;;;;;18.00;53.10;;;;;;5046197;28;962;-73
2024/03/09 00:11:48;;;;;;;;;;;18.00;53.20;;;;;;5045004;28;1292;-73
2024/03/09 00:14:14;;;;;;;;;;;18.00;53.20;;;;;;5048913;28;1031;-73
2024/03/09 00:16:40;;;;;;;;;;;18.00;53.20;;;;;;5043706;28;867;-71
2024/03/09 00:19:07;;;;;;;;;;;18.00;53.20;;;;;;5042899;28;1902;-71
2024/03/09 00:21:32;;;;;;;;;;;18.00;53.20;;;;;;5044986;28;879;-72
2024/03/09 00:23:58;;;;;;;;;;;17.90;53.20;;;;;;5043610;28;1321;-72
2024/03/09 00:26:23;;;;;;;;;;;18.00;53.20;;;;;;5048656;28;923;-71
2024/03/09 00:28:49;;;;;;;;;;;18.00;53.30;;;;;;5046262;28;953;-72
2024/03/09 00:31:16;;;;;;;;;;;18.00;53.30;;;;;;5044079;28;1017;-71
2024/03/09 00:33:41;;;;;;;;;;;18.00;53.30;;;;;;5043273;28;1334;-71
2024/03/09 00:36:08;;;;;;;;;;;18.00;53.30;;;;;;5040729;28;887;-72
2024/03/09 00:38:34;;;;;;;;;;;18.00;53.30;;;;;;5048888;28;1959;-71
2024/03/09 00:40:59;;;;;;;;;;;18.00;53.40;;;;;;5042249;28;1282;-72
2024/03/09 00:43:25;;;;;;;;;;;18.00;53.40;;;;;;5041993;28;1362;-73
2024/03/09 00:45:50;;;;;;;;;;;18.00;53.40;;;;;;5043551;28;1005;-71
2024/03/09 00:48:16;;;;;;;;;;;18.00;53.40;;;;;;5042075;28;1133;-72
2024/03/09 00:50:42;;;;;;;;;;;17.90;53.40;;;;;;5042602;28;923;-72
2024/03/09 00:53:08;;;;;;;;;;;17.90;53.50;;;;;;5043187;28;1383;-72
2024/03/09 00:55:35;;;;;;;;;;;17.90;53.50;;;;;;5045032;28;1072;-72
2024/03/09 00:58:01;;;;;;;;;;;17.90;53.50;;;;;;5046265;28;1957;-72
2024/03/09 01:00:28;;;;;;;;;;;17.90;53.50;;;;;;5047145;28;1074;-71
2024/03/09 01:02:54;;;;;;;;;;;17.90;53.50;;;;;;5045013;28;1284;-72
2024/03/09 01:05:21;;;;;;;;;;;17.90;53.60;;;;;;5041923;28;1025;-73
2024/03/09 01:07:47;;;;;;;;;;;17.90;53.60;;;;;;5042336;28;1252;-71
2024/03/09 01:10:12;;;;;;;;;;;17.90;53.60;;;;;;5044303;28;848;-72
2024/03/09 01:12:39;;;;;;;;;;;17.90;53.60;;;;;;5046518;28;1283;-72
2024/03/09 01:15:06;;;;;;;;;;;17.90;53.60;;;;;;5042533;28;776;-72
2024/03/09 01:17:33;;;;;;;;;;;17.90;53.60;;;;;;5040498;28;1360;-73
2024/03/09 01:19:59;;;;;;;;;;;17.90;53.70;;;;;;5026569;28;1906;-73
2024/03/09 01:22:24;;;;;;;;;;;17.90;53.70;;;;;;5039405;28;1498;-72
2024/03/09 01:24:49;;;;;;;;;;;17.90;53.70;;;;;;5042052;28;1570;-73
2024/03/09 01:27:15;;;;;;;;;;;17.90;53.70;;;;;;5040348;28;1458;-73
2024/03/09 01:29:46;;;;;;;;;;;17.90;53.70;;;;;;5042358;28;1499;-73
2024/03/09 01:32:12;;;;;;;;;;;17.90;53.70;;;;;;5042400;28;1680;-73
2024/03/09 01:34:37;;;;;;;;;;;17.90;53.70;;;;;;5039338;28;1649;-73
2024/03/09 01:37:05;;;;;;;;;;;17.90;53.80;;;;;;5041241;28;1530;-73
2024/03/09 01:39:31;;;;;;;;;;;17.90;53.80;;;;;;5041602;28;1964;-73
2024/03/09 01:41:56;;;;;;;;;;;17.90;53.80;;;;;;5040866;28;1717;-72
2024/03/09 01:44:22;;;;;;;;;;;17.90;53.80;;;;;;5040304;28;1545;-73
2024/03/09 01:46:47;;;;;;;;;;;17.90;53.80;;;;;;5038704;28;1524;-72
2024/03/09 01:49:14;;;;;;;;;;;17.90;53.90;;;;;;5038494;28;1646;-72
2024/03/09 01:51:45;;;;;;;;;;;17.90;53.90;;;;;;5042147;28;1582;-73
2024/03/09 01:54:12;;;;;;;;;;;17.90;53.90;;;;;;5038749;28;1434;-73
2024/03/09 01:56:38;;;;;;;;;;;17.90;53.90;;;;;;5046449;28;1332;-72
2024/03/09 01:59:07;;;;;;;;;;;17.90;53.90;;;;;;5038139;28;1902;-72
2024/03/09 02:01:34;;;;;;;;;;;17.90;53.90;;;;;;5044780;28;1371;-72
2024/03/09 02:03:59;;;;;;;;;;;17.90;54.00;;;;;;5037626;28;1506;-73
2024/03/09 02:06:27;;;;;;;;;;;17.90;54.00;;;;;;5040608;28;1433;-72
2024/03/09 02:08:53;;;;;;;;;;;17.90;54.00;;;;;;5037570;28;1511;-73
2024/03/09 02:11:20;;;;;;;;;;;17.90;54.00;;;;;;5037662;28;1550;-72
2024/03/09 02:13:46;;;;;;;;;;;17.90;54.10;;;;;;5025061;28;1382;-72
2024/03/09 02:16:12;;;;;;;;;;;17.90;54.10;;;;;;5038404;28;1536;-72
2024/03/09 02:18:39;;;;;;;;;;;17.90;54.10;;;;;;5043121;28;1922;-72
2024/03/09 02:21:07;;;;;;;;;;;17.90;54.10;;;;;;5038242;28;1588;-72
2024/03/09 02:23:35;;;;;;;;;;;17.90;54.10;;;;;;5039287;28;1493;-72
2024/03/09 02:26:01;;;;;;;;;;;17.90;54.10;;;;;;5035347;28;1578;-73
2024/03/09 02:28:27;;;;;;;;;;;17.80;54.10;;;;;;5046847;28;1446;-72
2024/03/09 02:30:56;;;;;;;;;;;17.90;54.10;;;;;;5039593;28;1538;-72
2024/03/09 02:33:21;;;;;;;;;;;17.90;54.80;;;;;;5070967;28;1461;-72
2024/03/09 02:35:47;;;;;;;;;;;17.80;54.10;;;;;;5038084;28;1371;-72
2024/03/09 02:38:13;;;;;;;;;;;17.80;54.10;;;;;;5036172;28;1961;-72
2024/03/09 02:40:39;;;;;;;;;;;17.80;54.20;;;;;;5035507;28;1364;-72
2024/03/09 02:43:05;;;;;;;;;;;17.80;54.10;;;;;;5039811;28;1517;-72
2024/03/09 02:45:32;;;;;;;;;;;17.80;54.20;;;;;;5039974;28;1102;-73
2024/03/09 02:47:58;;;;;;;;;;;17.80;54.20;;;;;;5040518;28;1337;-72
2024/03/09 02:50:24;;;;;;;;;;;17.80;54.20;;;;;;5038461;28;1443;-72
2024/03/09 02:52:53;;;;;;;;;;;17.80;54.20;;;;;;5037772;28;1276;-72
2024/03/09 02:55:18;;;;;;;;;;;17.80;54.30;;;;;;5036689;28;1142;-71
2024/03/09 02:57:44;;;;;;;;;;;17.80;54.30;;;;;;5037947;28;1906;-72
2024/03/09 03:00:11;;;;;;;;;;;17.80;54.30;;;;;;5037093;28;1206;-73
2024/03/09 03:05:23;;;;;;;;;;;17.80;54.30;;;;;;5040716;28;1036;-72
2024/03/09 03:07:49;;;;;;;;;;;17.80;54.40;;;;;;5043366;28;1627;-72
2024/03/09 03:10:15;;;;;;;;;;;17.80;54.30;;;;;;5048769;28;1553;-72
2024/03/09 03:12:41;;;;;;;;;;;17.80;54.40;;;;;;5042416;28;1858;-72
2024/03/09 03:15:12;;;;;;;;;;;17.80;54.30;;;;;;5038816;28;1381;-72
2024/03/09 03:17:38;;;;;;;;;;;17.80;54.40;;;;;;5041734;28;1690;-73
2024/03/09 03:20:08;;;;;;;;;;;17.80;54.40;;;;;;5043158;28;1965;-73
2024/03/09 03:22:34;;;;;;;;;;;17.80;54.40;;;;;;5046835;28;1380;-72
2024/03/09 03:24:59;;;;;;;;;;;17.80;54.40;;;;;;5042415;28;1368;-73
2024/03/09 03:27:25;;;;;;;;;;;17.80;54.40;;;;;;5043375;28;1327;-73
2024/03/09 03:29:51;;;;;;;;;;;17.80;54.40;;;;;;5041938;28;1528;-73
2024/03/09 03:32:16;;;;;;;;;;;17.80;54.40;;;;;;5042215;28;1324;-72
2024/03/09 03:34:43;;;;;;;;;;;17.80;54.40;;;;;;5041666;28;2252;-73
2024/03/09 03:37:08;;;;;;;;;;;17.80;54.50;;;;;;5043919;28;1336;-72
2024/03/09 03:39:34;;;;;;;;;;;17.80;54.40;;;;;;5041949;28;1966;-72
2024/03/09 03:41:59;;;;;;;;;;;17.80;54.50;;;;;;5042506;28;1457;-73
2024/03/09 03:44:29;;;;;;;;;;;17.80;54.50;;;;;;5040537;28;1343;-72
2024/03/09 03:46:55;;;;;;;;;;;17.80;54.50;;;;;;5042387;28;1462;-73
2024/03/09 03:49:20;;;;;;;;;;;17.80;54.50;;;;;;5040583;28;1459;-72
2024/03/09 03:51:46;;;;;;;;;;;17.80;54.50;;;;;;5025666;28;1159;-72
2024/03/09 03:54:11;;;;;;;;;;;17.80;54.50;;;;;;5038746;28;1482;-72
2024/03/09 03:56:36;;;;;;;;;;;17.80;54.60;;;;;;5043547;28;1543;-72
2024/03/09 03:59:02;;;;;;;;;;;17.80;54.60;;;;;;5041710;28;1918;-72
2024/03/09 04:01:29;;;;;;;;;;;17.80;54.60;;;;;;5043701;28;1362;-72
2024/03/09 04:03:54;;;;;;;;;;;17.80;54.60;;;;;;5041965;28;1490;-72
2024/03/09 04:06:20;;;;;;;;;;;17.80;54.60;;;;;;5039373;28;1585;-72
2024/03/09 04:08:45;;;;;;;;;;;17.80;54.60;;;;;;5043374;28;1525;-72
2024/03/09 04:11:12;;;;;;;;;;;17.80;54.60;;;;;;5042594;28;1103;-72
2024/03/09 04:13:38;;;;;;;;;;;17.80;54.60;;;;;;5040078;28;1397;-72
2024/03/09 04:16:03;;;;;;;;;;;17.80;54.70;;;;;;5072118;28;1553;-72
2024/03/09 04:18:30;;;;;;;;;;;17.80;54.70;;;;;;5048796;28;1895;-72
2024/03/09 04:20:56;;;;;;;;;;;17.80;54.70;;;;;;5040448;28;1385;-72
2024/03/09 04:23:22;;;;;;;;;;;17.80;54.70;;;;;;5042019;28;1388;-72
2024/03/09 04:25:50;;;;;;;;;;;17.80;54.70;;;;;;5044034;28;1187;-72
2024/03/09 04:28:21;;;;;;;;;;;17.80;54.70;;;;;;5040763;28;1419;-72
2024/03/09 04:30:48;;;;;;;;;;;17.80;54.70;;;;;;5071188;28;1017;-72
2024/03/09 04:33:15;;;;;;;;;;;17.80;54.70;;;;;;5031657;28;1382;-72
2024/03/09 04:35:41;;;;;;;;;;;17.80;54.70;;;;;;5026831;28;1672;-72
2024/03/09 04:38:07;;;;;;;;;;;17.80;54.80;;;;;;5041857;28;1992;-72
2024/03/09 04:40:35;;;;;;;;;;;17.80;54.80;;;;;;5041642;28;1492;-72
2024/03/09 04:43:03;;;;;;;;;;;17.80;54.80;;;;;;5052803;28;1366;-72
2024/03/09 04:45:30;;;;;;;;;;;17.80;54.80;;;;;;5042722;28;1453;-72
2024/03/09 04:47:59;;;;;;;;;;;17.80;54.80;;;;;;5042169;28;1328;-72
2024/03/09 04:50:28;;;;;;;;;;;17.80;54.80;;;;;;5041571;28;1355;-72
2024/03/09 04:52:54;;;;;;;;;;;17.80;54.80;;;;;;5040601;28;1383;-72
2024/03/09 04:55:21;;;;;;;;;;;17.80;54.90;;;;;;5041018;28;1464;-72
2024/03/09 04:57:48;;;;;;;;;;;17.80;54.90;;;;;;5044521;28;1961;-72
2024/03/09 05:00:16;;;;;;;;;;;17.80;55.40;;;;;;5039586;28;1416;-72
2024/03/09 05:02:43;;;;;;;;;;;17.80;54.90;;;;;;5042028;28;1628;-71
2024/03/09 05:05:08;;;;;;;;;;;17.80;54.90;;;;;;5036975;28;1586;-72
2024/03/09 05:07:34;;;;;;;;;;;17.80;54.90;;;;;;5037189;28;1603;-72
2024/03/09 05:10:00;;;;;;;;;;;17.80;54.90;;;;;;5034731;28;1470;-73
2024/03/09 05:12:25;;;;;;;;;;;17.80;54.90;;;;;;5046829;28;1379;-72
2024/03/09 05:14:51;;;;;;;;;;;17.80;54.90;;;;;;5047284;28;1491;-72
2024/03/09 05:17:16;;;;;;;;;;;17.80;54.80;;;;;;5038205;28;1538;-72
2024/03/09 05:19:42;;;;;;;;;;;17.80;54.70;;;;;;5039168;28;1926;-72
2024/03/09 05:22:07;;;;;;;;;;;17.90;54.80;;;;;;5040170;28;1483;-72
2024/03/09 05:24:33;;;;;;;;;;;17.90;54.70;;;;;;5040718;28;1372;-72
2024/03/09 05:26:58;;;;;;;;;;;17.90;54.60;;;;;;5046561;28;1718;-72
2024/03/09 05:29:26;;;;;;;;;;;18.00;54.50;;;;;;5039702;28;1234;-72
2024/03/09 05:31:51;;;;;;;;;;;18.00;54.50;;;;;;5041697;28;1533;-72
2024/03/09 05:34:18;;;;;;;;;;;18.00;54.40;;;;;;5041155;28;966;-71
2024/03/09 05:36:44;;;;;;;;;;;18.00;54.30;;;;;;5047029;28;915;-72
2024/03/09 05:39:13;;;;;;;;;;;18.10;54.30;;;;;;5044705;28;2040;-71
2024/03/09 05:41:38;;;;;;;;;;;18.10;54.20;;;;;;5046166;28;1074;-71
2024/03/09 05:44:03;;;;;;;;;;;18.10;54.20;;;;;;5045211;28;1276;-72
2024/03/09 05:46:29;;;;;;;;;;;18.10;54.10;;;;;;5043315;28;1139;-73
2024/03/09 05:48:55;;;;;;;;;;;18.20;54.10;;;;;;5039344;28;1261;-71
2024/03/09 05:51:20;;;;;;;;;;;18.20;54.10;;;;;;5045435;28;864;-71
2024/03/09 05:53:49;;;;;;;;;;;18.20;54.00;;;;;;5048947;28;1390;-71
2024/03/09 05:56:15;;;;;;;;;;;18.20;54.00;;;;;;5039791;28;1153;-71
2024/03/09 05:58:40;;;;;;;;;;;18.20;54.00;;;;;;5041186;28;1902;-72
2024/03/09 06:01:06;;;;;;;;;;;18.20;54.00;;;;;;5046122;28;1257;-72
2024/03/09 06:03:31;;;;;;;;;;;18.20;54.00;;;;;;5040474;28;1236;-71
2024/03/09 06:05:57;;;;;;;;;;;18.20;54.00;;;;;;5047256;28;1035;-72
2024/03/09 06:08:22;;;;;;;;;;;18.20;54.00;;;;;;5043559;28;1041;-71
2024/03/09 06:10:49;;;;;;;;;;;18.20;54.60;;;;;;5040323;28;1268;-73
2024/03/09 06:13:17;;;;;;;;;;;18.20;54.10;;;;;;5044134;28;1379;-72
2024/03/09 06:15:47;;;;;;;;;;;18.20;54.00;;;;;;5045300;28;1163;-72
2024/03/09 06:18:23;;;;;;;;;;;18.20;54.00;;;;;;5043482;28;1975;-71
2024/03/09 06:20:48;;;;;;;;;;;18.20;54.00;;;;;;5043685;28;1303;-72
2024/03/09 06:23:14;;;;;;;;;;;18.20;54.00;;;;;;5037007;28;1721;-74
2024/03/09 06:25:40;;;;;;;;;;;18.20;54.00;;;;;;5038885;28;1223;-71
2024/03/09 06:28:07;;;;;;;;;;;18.20;54.00;;;;;;5046923;28;871;-71
2024/03/09 06:30:33;;;;;;;;;;;18.20;54.00;;;;;;5047345;28;868;-71
2024/03/09 06:32:59;;;;;;;;;;;18.30;54.00;;;;;;5039844;28;1311;-72
2024/03/09 06:35:27;;;;;;;;;;;18.20;53.90;;;;;;5043462;28;1037;-73
2024/03/09 06:38:00;;;;;;;;;;;18.30;54.00;;;;;;5037913;28;1958;-71
2024/03/09 06:40:30;;;;;;;;;;;18.20;53.90;;;;;;5045711;28;1310;-72
2024/03/09 06:43:05;;;;;;;;;;;18.20;53.90;;;;;;5038509;28;1253;-70
2024/03/09 06:45:31;;;;;;;;;;;18.20;53.90;;;;;;5046114;28;1338;-72
2024/03/09 06:47:59;;;;;;;;;;;18.20;52.10;;;;;;5075580;28;1402;-70
2024/03/09 06:50:25;;;;;;;;;;;18.20;52.10;;;;;;5024664;28;1374;-73
2024/03/09 06:52:51;;;;;;;;;;;18.20;48.10;;;;;;5058932;28;1292;-71
2024/03/09 06:55:18;;;;;;;;;;;18.20;49.00;;;;;;5041299;28;1316;-71
2024/03/09 06:57:46;;;;;;;;;;;18.20;49.20;;;;;;5032457;28;1993;-69
2024/03/09 07:00:13;;;;;;;;;;;18.20;49.30;;;;;;5038416;28;1898;-72
2024/03/09 07:02:42;;;;;;;;;;;18.20;49.40;;;;;;5038041;28;1396;-71
2024/03/09 07:05:11;;;;;;;;;;;18.10;49.60;;;;;;5069282;28;1289;-72
2024/03/09 07:07:37;;;;;;;;;;;18.10;50.00;;;;;;5023712;28;1393;-69
2024/03/09 07:10:07;;;;;;;;;;;18.20;51.30;;;;;;5031973;28;1350;-67
2024/03/09 07:12:37;;;;;;;;;;;18.20;51.40;;;;;;5046741;28;1373;-68
2024/03/09 07:15:05;;;;;;;;;;;18.40;51.40;;;;;;5049889;28;833;-68
2024/03/09 07:17:31;;;;;;;;;;;18.50;51.30;;;;;;5038931;28;1451;-69
2024/03/09 07:19:57;;;;;;;;;;;18.60;51.40;;;;;;5037711;28;1910;-68
2024/03/09 07:22:22;;;;;;;;;;;18.70;51.40;;;;;;5045564;28;1371;-70
2024/03/09 07:24:48;;;;;;;;;;;18.80;51.40;;;;;;5043383;28;1104;-71
2024/03/09 07:27:14;;;;;;;;;;;18.90;51.20;;;;;;5045372;28;1284;-72
2024/03/09 07:29:41;;;;;;;;;;;19.10;51.20;;;;;;5039668;28;1346;-69
2024/03/09 07:32:06;;;;;;;;;;;19.20;51.10;;;;;;5037914;28;1228;-70
2024/03/09 07:34:33;;;;;;;;;;;19.30;50.90;;;;;;5040155;28;1000;-68
2024/03/09 07:36:59;;;;;;;;;;;19.40;50.80;;;;;;5042612;28;1224;-69
2024/03/09 07:39:24;;;;;;;;;;;19.50;50.80;;;;;;5074171;28;1963;-69
2024/03/09 07:41:50;;;;;;;;;;;19.60;50.60;;;;;;5041708;28;1444;-70
2024/03/09 07:44:15;;;;;;;;;;;19.60;50.40;;;;;;5040172;28;958;-69
2024/03/09 07:46:40;;;;;;;;;;;19.70;50.40;;;;;;5038385;28;1558;-71
2024/03/09 07:49:07;;;;;;;;;;;19.80;50.30;;;;;;5036178;28;1245;-70
2024/03/09 07:51:35;;;;;;;;;;;19.90;50.20;;;;;;5036737;28;1443;-71
2024/03/09 07:54:01;;;;;;;;;;;19.90;50.10;;;;;;5039327;28;1513;-71
2024/03/09 07:56:26;;;;;;;;;;;20.00;50.10;;;;;;5042545;28;1539;-71
2024/03/09 07:58:52;;;;;;;;;;;20.00;50.00;;;;;;5044976;28;1887;-71
2024/03/09 08:01:18;;;;;;;;;;;20.10;50.00;;;;;;5040605;28;1383;-71
2024/03/09 08:03:45;;;;;;;;;;;20.10;49.90;;;;;;5039883;28;1885;-71
2024/03/09 08:06:11;;;;;;;;;;;20.20;49.90;;;;;;5040138;28;2165;-70
2024/03/09 08:08:36;;;;;;;;;;;20.20;49.80;;;;;;5052929;28;1350;-71
2024/03/09 08:11:04;;;;;;;;;;;20.20;49.90;;;;;;5051467;28;1383;-71
2024/03/09 08:13:30;;;;;;;;;;;20.30;50.00;;;;;;5037918;28;1444;-71
2024/03/09 08:15:56;;;;;;;;;;;20.30;50.10;;;;;;5041577;28;1423;-71
2024/03/09 08:18:21;;;;;;;;;;;20.40;50.30;;;;;;5043379;28;1963;-72
2024/03/09 08:20:47;;;;;;;;;;;20.40;50.40;;;;;;5041639;28;1496;-71
2024/03/09 08:23:13;;;;;;;;;;;20.40;50.50;;;;;;5038547;28;1835;-72
2024/03/09 08:25:38;;;;;;;;;;;20.50;50.60;;;;;;5041434;28;1438;-71
2024/03/09 08:28:04;;;;;;;;;;;20.50;50.60;;;;;;5040410;28;1375;-71
2024/03/09 08:30:31;;;;;;;;;;;20.50;50.60;;;;;;5038638;28;1413;-71
2024/03/09 08:32:59;;;;;;;;;;;20.50;50.70;;;;;;5039637;28;1578;-71
2024/03/09 08:35:27;;;;;;;;;;;20.60;50.80;;;;;;5048316;28;1586;-72
2024/03/09 08:37:52;;;;;;;;;;;20.60;50.80;;;;;;5040783;28;1961;-71
2024/03/09 08:40:18;;;;;;;;;;;20.60;50.90;;;;;;5024040;28;1445;-70
2024/03/09 08:42:44;;;;;;;;;;;20.60;51.00;;;;;;5041751;28;1426;-71
2024/03/09 08:45:10;;;;;;;;;;;20.70;51.10;;;;;;5038561;28;1392;-70
2024/03/09 08:47:36;;;;;;;;;;;20.70;51.10;;;;;;5039356;28;1498;-71
2024/03/09 08:50:01;;;;;;;;;;;20.70;51.20;;;;;;5038495;28;1502;-70
2024/03/09 08:52:27;;;;;;;;;;;20.70;51.20;;;;;;5041377;28;1467;-70
2024/03/09 08:54:52;;;;;;;;;;;20.80;51.30;;;;;;5041524;28;1485;-70
2024/03/09 08:57:18;;;;;;;;;;;20.80;51.30;;;;;;5041231;28;1360;-70
2024/03/09 08:59:44;;;;;;;;;;;20.80;51.30;;;;;;5037824;28;1975;-70
2024/03/09 09:02:10;;;;;;;;;;;20.80;51.30;;;;;;5041092;28;1393;-70
2024/03/09 09:04:35;;;;;;;;;;;20.90;51.40;;;;;;5038454;28;1477;-70
2024/03/09 09:07:01;;;;;;;;;;;20.90;51.40;;;;;;5039426;28;1678;-70
2024/03/09 09:09:27;;;;;;;;;;;20.90;51.40;;;;;;5048383;28;1649;-71
2024/03/09 09:11:52;;;;;;;;;;;20.90;51.50;;;;;;5042138;28;1463;-70
2024/03/09 09:14:18;;;;;;;;;;;20.90;51.60;;;;;;5039916;28;1850;-70
2024/03/09 09:16:44;;;;;;;;;;;20.90;51.70;;;;;;5036697;28;1620;-70
2024/03/09 09:19:10;;;;;;;;;;;20.90;51.80;;;;;;5038332;28;1969;-71
2024/03/09 09:21:35;;;;;;;;;;;20.90;51.80;;;;;;5041707;28;1202;-70
2024/03/09 09:24:04;;;;;;;;;;;20.90;51.90;;;;;;5073521;28;1353;-71
2024/03/09 09:26:30;;;;;;;;;;;20.90;51.90;;;;;;5050365;28;1164;-70
2024/03/09 09:28:56;;;;;;;;;;;20.90;52.00;;;;;;5036875;28;1318;-70
2024/03/09 09:31:21;;;;;;;;;;;20.90;52.10;;;;;;5035400;28;1580;-70
2024/03/09 09:33:47;;;;;;;;;;;20.90;52.20;;;;;;5047949;28;1811;-70
2024/03/09 09:36:12;;;;;;;;;;;20.90;52.30;;;;;;5041965;28;1453;-72
2024/03/09 09:38:39;;;;;;;;;;;20.80;52.50;;;;;;5039200;28;1894;-71
2024/03/09 09:41:04;;;;;;;;;;;20.80;52.60;;;;;;5037261;28;1480;-71
2024/03/09 09:43:32;;;;;;;;;;;20.80;52.70;;;;;;5036429;28;1935;-71
2024/03/09 09:45:57;;;;;;;;;;;20.80;52.80;;;;;;5071004;28;1403;-71
2024/03/09 09:48:26;;;;;;;;;;;20.80;52.80;;;;;;5036742;28;1207;-71
2024/03/09 09:50:52;;;;;;;;;;;20.80;52.90;;;;;;5053399;28;1120;-72
2024/03/09 09:53:20;;;;;;;;;;;20.80;53.10;;;;;;5039285;28;1515;-70
2024/03/09 09:55:46;;;;;;;;;;;20.70;53.20;;;;;;5025058;28;1549;-72
2024/03/09 09:58:12;;;;;;;;;;;20.70;53.30;;;;;;5047208;28;1890;-71
2024/03/09 10:00:38;;;;;;;;;;;20.70;53.30;;;;;;5039932;28;1520;-71
2024/03/09 10:03:04;;;;;;;;;;;20.70;53.40;;;;;;5040161;28;1606;-72
2024/03/09 10:05:31;;;;;;;;;;;20.70;53.50;;;;;;5041351;28;1396;-72
2024/03/09 10:08:09;;;;;;;;;;;20.60;54.00;;;;;;5028336;28;1346;-71
2024/03/09 10:10:37;;;;;;;;;;;20.60;54.00;;;;;;5040864;28;1479;-70
2024/03/09 10:13:06;;;;;;;;;;;20.60;53.90;;;;;;5040852;28;1516;-71
2024/03/09 10:15:33;;;;;;;;;;;20.60;54.00;;;;;;5040924;28;1453;-71
2024/03/09 10:17:59;;;;;;;;;;;20.50;53.90;;;;;;5040699;28;1898;-69
2024/03/09 10:20:24;;;;;;;;;;;20.50;54.10;;;;;;5037145;28;1746;-71
2024/03/09 10:22:50;;;;;;;;;;;20.50;54.10;;;;;;5042269;28;1494;-71
2024/03/09 10:25:31;;;;;;;;;;;20.50;54.20;;;;;;5037336;28;1627;-71
2024/03/09 10:27:58;;;;;;;;;;;20.50;54.30;;;;;;5038791;28;1673;-70
2024/03/09 10:30:24;;;;;;;;;;;20.50;54.40;;;;;;5038079;28;1472;-71
2024/03/09 10:32:51;;;;;;;;;;;20.50;54.70;;;;;;5040558;28;1367;-71
2024/03/09 10:35:17;;;;;;;;;;;20.40;54.80;;;;;;5036654;28;1572;-71
2024/03/09 10:37:42;;;;;;;;;;;20.40;55.10;;;;;;5039403;28;1208;-71
2024/03/09 10:40:12;;;;;;;;;;;20.40;55.40;;;;;;5038480;28;1898;-71
2024/03/09 10:42:45;;;;;;;;;;;20.40;56.30;;;;;;5037350;28;1295;-71
2024/03/09 10:45:12;;;;;;;;;;;20.40;56.20;;;;;;5040021;28;1176;-72
2024/03/09 10:47:39;;;;;;;;;;;20.30;56.10;;;;;;5033517;28;1659;-72
2024/03/09 10:50:05;;;;;;;;;;;20.30;56.00;;;;;;5046734;28;1151;-71
2024/03/09 10:52:31;;;;;;;;;;;20.30;56.00;;;;;;5036769;28;1456;-72
2024/03/09 10:55:02;;;;;;;;;;;20.30;55.90;;;;;;5038258;28;1227;-72
2024/03/09 10:57:29;;;;;;;;;;;20.30;56.10;;;;;;5038945;28;1129;-72
2024/03/09 10:59:55;;;;;;;;;;;20.30;56.10;;;;;;5053957;28;1981;-71
2024/03/09 11:02:20;;;;;;;;;;;20.30;56.10;;;;;;5038549;28;1433;-71
2024/03/09 11:04:49;;;;;;;;;;;20.30;56.10;;;;;;5038015;28;1804;-72
2024/03/09 11:07:21;;;;;;;;;;;20.30;56.20;;;;;;5038641;28;1508;-71
2024/03/09 11:09:49;;;;;;;;;;;20.20;56.20;;;;;;5047036;28;1691;-71
2024/03/09 11:12:15;;;;;;;;;;;20.20;56.40;;;;;;5040544;28;1385;-70
2024/03/09 11:14:50;;;;;;;;;;;20.20;56.50;;;;;;5039608;28;1366;-71
2024/03/09 11:17:17;;;;;;;;;;;20.20;56.40;;;;;;5036431;28;1258;-71
2024/03/09 11:19:48;;;;;;;;;;;20.20;56.50;;;;;;5045738;28;1906;-71
2024/03/09 11:22:33;;;;;;;;;;;20.20;56.50;;;;;;5027941;28;1605;-71
2024/03/09 11:24:59;;;;;;;;;;;20.20;56.50;;;;;;5041223;28;1552;-71
2024/03/09 11:27:31;;;;;;;;;;;20.10;56.50;;;;;;5040207;28;1409;-70
2024/03/09 11:29:56;;;;;;;;;;;20.10;56.50;;;;;;5043429;28;1606;-70
2024/03/09 11:32:22;;;;;;;;;;;20.10;56.70;;;;;;5041202;28;1636;-71
2024/03/09 11:34:47;;;;;;;;;;;20.10;56.60;;;;;;5043275;28;1438;-71
2024/03/09 11:37:15;;;;;;;;;;;20.10;56.80;;;;;;5042872;28;1665;-70
2024/03/09 11:39:40;;;;;;;;;;;20.10;56.70;;;;;;5043197;28;1902;-71
2024/03/09 11:42:08;;;;;;;;;;;20.10;56.80;;;;;;5026552;28;1350;-71
2024/03/09 11:44:36;;;;;;;;;;;20.10;56.80;;;;;;5041265;28;1440;-70
2024/03/09 11:47:03;;;;;;;;;;;20.10;56.80;;;;;;5042873;28;1655;-70
2024/03/09 11:49:29;;;;;;;;;;;20.00;56.80;;;;;;5043941;28;1584;-71
2024/03/09 11:51:56;;;;;;;;;;;20.00;56.90;;;;;;5039338;28;1387;-71
2024/03/09 11:54:22;;;;;;;;;;;20.00;56.90;;;;;;5039286;28;1588;-70
2024/03/09 11:56:47;;;;;;;;;;;20.00;57.00;;;;;;5044485;28;1637;-71
2024/03/09 11:59:15;;;;;;;;;;;20.00;57.10;;;;;;5038973;28;1898;-71
2024/03/09 12:01:40;;;;;;;;;;;20.00;57.20;;;;;;5040330;28;1601;-71
2024/03/09 12:04:06;;;;;;;;;;;20.00;57.40;;;;;;5039608;28;1553;-71
2024/03/09 12:06:32;;;;;;;;;;;20.00;57.50;;;;;;5040246;28;1498;-71
2024/03/09 12:08:58;;;;;;;;;;;19.90;57.40;;;;;;5042533;28;1061;-70
2024/03/09 12:11:24;;;;;;;;;;;19.90;57.70;;;;;;5041253;28;2168;-72
2024/03/09 12:13:49;;;;;;;;;;;19.90;57.80;;;;;;5040447;28;2007;-72
2024/03/09 12:16:15;;;;;;;;;;;19.90;57.80;;;;;;5055982;28;1460;-72
2024/03/09 12:18:42;;;;;;;;;;;19.90;57.80;;;;;;5040509;28;1977;-71
2024/03/09 12:21:08;;;;;;;;;;;19.90;57.90;;;;;;5039951;28;1227;-72
2024/03/09 12:23:34;;;;;;;;;;;19.90;57.90;;;;;;5041211;28;1510;-72
2024/03/09 12:26:00;;;;;;;;;;;19.90;57.90;;;;;;5041828;28;1565;-71
2024/03/09 12:28:27;;;;;;;;;;;19.90;57.90;;;;;;5039179;28;1498;-71
2024/03/09 12:30:52;;;;;;;;;;;19.90;57.80;;;;;;5039019;28;1327;-72
2024/03/09 12:33:18;;;;;;;;;;;19.90;57.80;;;;;;5041853;28;1533;-71
2024/03/09 12:35:46;;;;;;;;;;;19.90;58.20;;;;;;5040404;28;1402;-72
2024/03/09 12:38:11;;;;;;;;;;;19.90;58.20;;;;;;5026233;28;1977;-71
2024/03/09 12:40:37;;;;;;;;;;;19.90;58.40;;;;;;5041069;28;1460;-71
2024/03/09 12:43:04;;;;;;;;;;;19.90;58.30;;;;;;5077917;28;1385;-71
2024/03/09 12:45:29;;;;;;;;;;;19.90;58.10;;;;;;5037970;28;1284;-71
2024/03/09 12:47:55;;;;;;;;;;;19.90;58.10;;;;;;5048884;28;1670;-71
2024/03/09 12:50:21;;;;;;;;;;;19.90;58.10;;;;;;5044793;28;1278;-72
2024/03/09 12:52:50;;;;;;;;;;;19.80;58.00;;;;;;5039817;28;1276;-72
2024/03/09 12:55:19;;;;;;;;;;;19.80;58.00;;;;;;5048857;28;919;-72
2024/03/09 12:57:48;;;;;;;;;;;19.80;58.10;;;;;;5043206;28;1232;-71
2024/03/09 13:00:23;;;;;;;;;;;19.80;58.00;;;;;;5047285;28;1902;-71
2024/03/09 13:02:50;;;;;;;;;;;19.80;58.10;;;;;;5042780;28;1632;-71
2024/03/09 13:05:19;;;;;;;;;;;19.80;57.20;;;;;;5049144;28;1592;-71
2024/03/09 13:07:59;;;;;;;;;;;19.80;52.60;;;;;;5052986;28;932;-71
2024/03/09 13:10:25;;;;;;;;;;;19.70;49.60;;;;;;5042966;28;816;-71
2024/03/09 13:12:51;;;;;;;;;;;19.60;48.00;;;;;;5043975;28;1398;-71
2024/03/09 13:15:20;;;;;;;;;;;19.60;47.60;;;;;;5046945;28;877;-71
2024/03/09 13:17:46;;;;;;;;;;;19.50;47.10;;;;;;5054274;28;1503;-70
2024/03/09 13:20:17;;;;;;;;;;;19.50;46.50;;;;;;5041041;28;1910;-70
2024/03/09 13:22:49;;;;;;;;;;;19.40;46.70;;;;;;5043669;28;1491;-71
2024/03/09 13:25:14;;;;;;;;;;;19.40;46.30;;;;;;5030124;28;1576;-70
2024/03/09 13:27:40;;;;;;;;;;;19.30;46.30;;;;;;5038702;28;1239;-71
2024/03/09 13:30:25;;;;;;;;;;;19.30;45.80;;;;;;5042547;28;1148;-72
2024/03/09 13:32:51;;;;;;;;;;;19.20;45.60;;;;;;5029497;28;1394;-71
2024/03/09 13:35:19;;;;;;;;;;;19.20;50.70;;;;;;5040406;28;1429;-71
2024/03/09 13:37:45;;;;;;;;;;;19.20;49.90;;;;;;5041092;28;1252;-71
2024/03/09 13:40:11;;;;;;;;;;;19.20;49.80;;;;;;5038824;28;1894;-69
2024/03/09 13:42:37;;;;;;;;;;;19.20;49.90;;;;;;5039712;28;1327;-69
2024/03/09 13:45:09;;;;;;;;;;;19.20;50.10;;;;;;5041103;28;1265;-70
2024/03/09 13:47:40;;;;;;;;;;;19.20;50.50;;;;;;5043309;28;1251;-71
2024/03/09 13:50:07;;;;;;;;;;;19.20;50.60;;;;;;5040862;28;1320;-71
2024/03/09 13:52:32;;;;;;;;;;;19.20;50.90;;;;;;5041902;28;1364;-72
2024/03/09 13:54:58;;;;;;;;;;;19.20;51.10;;;;;;5048783;28;1381;-72
2024/03/09 13:57:27;;;;;;;;;;;19.20;51.30;;;;;;5041144;28;1432;-69
2024/03/09 13:59:54;;;;;;;;;;;19.20;51.50;;;;;;5042528;28;1971;-70
2024/03/09 14:02:21;;;;;;;;;;;19.20;51.70;;;;;;5041133;28;1562;-71
2024/03/09 14:04:47;;;;;;;;;;;19.20;51.80;;;;;;5043086;28;1253;-71
2024/03/09 14:07:14;;;;;;;;;;;19.20;51.90;;;;;;5037664;28;1585;-72
2024/03/09 14:09:48;;;;;;;;;;;19.20;52.00;;;;;;5038396;28;1549;-71
2024/03/09 14:12:21;;;;;;;;;;;19.20;52.10;;;;;;5038240;28;1490;-71
2024/03/09 14:14:49;;;;;;;;;;;19.20;52.30;;;;;;5039398;28;1574;-71
2024/03/09 14:17:15;;;;;;;;;;;19.20;52.30;;;;;;5073540;28;1851;-72
2024/03/09 14:19:41;;;;;;;;;;;19.20;52.40;;;;;;5042336;28;1975;-71
2024/03/09 14:22:10;;;;;;;;;;;19.20;52.50;;;;;;5039509;28;1566;-71
2024/03/09 14:24:37;;;;;;;;;;;19.20;52.60;;;;;;5038190;28;1532;-71
2024/03/09 14:27:03;;;;;;;;;;;19.10;52.60;;;;;;5039597;28;1404;-72
2024/03/09 14:29:30;;;;;;;;;;;19.10;52.70;;;;;;5040028;28;1117;-71
2024/03/09 14:31:56;;;;;;;;;;;19.10;52.80;;;;;;5036863;28;1716;-72